Time;durP1;ratioP1;P1;durP2;ratioP2;P2;SDS_P1;SDS_P2;PMS_P1;PMS_P2;Temp;Humidity;BMP_temperature;BMP_pressure;BME280_temperature;BME280_humidity;BME280_pressure;Samples;Min_cycle;Max_cycle;Signal;HPM_P1;HPM_P2
2022/09/05 00:02:30;;;;;;;12.23;7.82;;;;;;;18.92;58.41;101799.88;5008739;28;20026;-57
2022/09/05 00:05:23;;;;;;;13.80;7.68;;;;;;;18.90;58.27;101794.59;5007566;28;20045;-56
2022/09/05 00:08:13;;;;;;;11.57;7.60;;;;;;;18.86;57.85;101795.44;5014158;28;20140;-56
2022/09/05 00:11:01;;;;;;;10.10;7.05;;;;;;;18.82;57.95;101792.75;5004878;28;20033;-56
2022/09/05 00:13:31;;;;;;;11.18;6.97;;;;;;;18.73;59.22;101788.31;5007604;28;20045;-56
2022/09/05 00:16:16;;;;;;;12.95;7.30;;;;;;;18.73;58.66;101793.59;5005001;28;20437;-56
2022/09/05 00:19:36;;;;;;;10.90;7.72;;;;;;;18.73;58.16;101791.84;5009737;28;20282;-57
2022/09/05 00:22:20;;;;;;;11.10;7.32;;;;;;;18.67;58.34;101793.53;5007265;28;20070;-57
2022/09/05 00:25:19;;;;;;;14.52;7.45;;;;;;;18.65;58.30;101790.03;5009005;28;20045;-57
2022/09/05 00:27:59;;;;;;;;;;;;;;;18.73;57.31;101790.97;5008110;28;20029;-57
2022/09/05 00:30:32;;;;;;;11.23;7.00;;;;;;;18.61;58.69;101789.16;4999612;28;19987;-57
2022/09/05 00:32:57;;;;;;;11.07;6.53;;;;;;;18.55;58.44;101782.06;5007398;28;20025;-57
2022/09/05 00:35:38;;;;;;;9.73;7.00;;;;;;;18.54;58.11;101784.72;5002259;28;20109;-57
2022/09/05 00:38:15;;;;;;;8.65;6.40;;;;;;;18.49;58.49;101792.56;5001324;28;20033;-57
2022/09/05 00:40:45;;;;;;;11.07;6.40;;;;;;;18.39;58.38;101781.09;5007542;28;20078;-57
2022/09/05 00:43:17;;;;;;;11.30;7.05;;;;;;;18.35;59.16;101783.69;5009745;28;20049;-57
2022/09/05 00:45:49;;;;;;;9.52;6.85;;;;;;;18.33;59.07;101791.59;5003248;28;20107;-57
2022/09/05 00:48:24;;;;;;;12.15;7.05;;;;;;;18.32;59.50;101788.94;5007701;28;20033;-57
2022/09/05 00:51:24;;;;;;;12.25;7.10;;;;;;;18.32;58.59;101786.31;5004402;28;20083;-57
2022/09/05 00:54:24;;;;;;;11.50;6.90;;;;;;;18.28;59.18;101777.50;5004772;28;20026;-57
2022/09/05 00:57:30;;;;;;;11.07;6.93;;;;;;;18.24;59.43;101776.59;5008034;28;20032;-56
2022/09/05 00:59:58;;;;;;;8.50;6.15;;;;;;;18.20;59.30;101769.53;4988143;28;20038;-56
2022/09/05 01:02:41;;;;;;;12.43;6.85;;;;;;;18.21;59.72;101776.56;5004637;28;20041;-56
2022/09/05 01:05:24;;;;;;;10.65;6.72;;;;;;;18.16;59.47;101773.03;5000215;28;20093;-57
2022/09/05 01:08:26;;;;;;;13.73;7.35;;;;;;;18.13;59.89;101778.25;5006162;28;20026;-57
2022/09/05 01:10:58;;;;;;;10.77;7.30;;;;;;;18.07;61.07;101778.22;5008557;28;20042;-57
2022/09/05 01:13:45;;;;;;;11.40;7.55;;;;;;;18.06;60.08;101779.09;5007801;28;20084;-57
2022/09/05 01:16:23;;;;;;;10.70;7.97;;;;;;;18.02;60.62;101777.31;5002862;28;20101;-57
2022/09/05 01:18:52;;;;;;;10.35;7.50;;;;;;;18.01;61.56;101772.91;5002862;28;20137;-57
2022/09/05 01:21:36;;;;;;;9.57;7.70;;;;;;;18.01;60.59;101775.53;5004282;28;20030;-57
2022/09/05 01:24:39;;;;;;;11.30;8.48;;;;;;;17.99;60.85;101779.94;5008947;28;20497;-56
2022/09/05 01:27:26;;;;;;;11.60;8.25;;;;;;;17.98;60.71;101768.50;5005276;28;20033;-56
2022/09/05 01:30:06;;;;;;;10.18;7.30;;;;;;;17.96;60.83;101778.16;5006250;28;20069;-56
2022/09/05 01:33:16;;;;;;;13.20;8.25;;;;;;;17.96;60.09;101772.88;5007595;28;20037;-55
2022/09/05 01:35:54;;;;;;;8.95;6.93;;;;;;;17.93;60.72;101772.88;5001912;28;20482;-55
2022/09/05 01:38:45;;;;;;;11.32;7.10;;;;;;;17.91;60.29;101782.50;5008859;28;20034;-56
2022/09/05 01:41:22;;;;;;;11.73;7.57;;;;;;;17.87;60.69;101778.03;4997301;28;20452;-57
2022/09/05 01:44:06;;;;;;;10.90;7.22;;;;;;;17.84;61.16;101778.91;5005276;28;20046;-56
2022/09/05 01:46:50;;;;;;;13.43;8.75;;;;;;;17.80;61.02;101776.22;5004743;28;20071;-56
2022/09/05 01:49:46;;;;;;;12.55;9.27;;;;;;;17.79;61.55;101769.19;5008057;28;20058;-56
2022/09/05 01:52:20;;;;;;;10.13;7.18;;;;;;;17.74;60.94;101769.13;5002192;28;20038;-54
2022/09/05 01:54:46;;;;;;;13.85;8.95;;;;;;;17.73;61.48;101767.38;5007182;28;20021;-56
2022/09/05 01:57:33;;;;;;;11.70;9.10;;;;;;;17.69;62.04;101771.72;5009371;28;20036;-56
2022/09/05 02:00:20;;;;;;;12.45;9.27;;;;;;;17.69;61.23;101763.81;5009438;28;20111;-56
2022/09/05 02:03:01;;;;;;;12.70;9.40;;;;;;;17.66;62.00;101771.72;5000185;28;20101;-56
2022/09/05 02:06:01;;;;;;;11.50;8.82;;;;;;;17.65;61.65;101769.94;5006277;28;20089;-56
2022/09/05 02:08:48;;;;;;;12.13;8.82;;;;;;;17.64;61.47;101773.47;5008246;28;20503;-56
2022/09/05 02:11:15;;;;;;;12.38;8.63;;;;;;;17.54;62.67;101767.22;5002916;28;20030;-56
2022/09/05 02:14:03;;;;;;;11.52;8.77;;;;;;;17.50;62.63;101769.81;5005334;28;20034;-56
2022/09/05 02:16:43;;;;;;;11.65;9.18;;;;;;;17.52;62.50;101773.31;5008294;28;20022;-56
2022/09/05 02:19:08;;;;;;;11.30;9.10;;;;;;;17.50;62.36;101775.06;5005004;28;20034;-56
2022/09/05 02:21:36;;;;;;;13.18;8.98;;;;;;;17.50;63.02;101783.84;5005791;28;20528;-57
2022/09/05 02:24:23;;;;;;;11.88;9.60;;;;;;;17.44;62.58;101775.00;5004604;28;20030;-57
2022/09/05 02:27:03;;;;;;;12.73;9.52;;;;;;;17.46;62.16;101774.16;5007756;28;20030;-57
2022/09/05 02:29:38;;;;;;;11.48;9.10;;;;;;;17.40;63.17;101776.72;5004822;28;20053;-57
2022/09/05 02:32:31;;;;;;;11.48;9.32;;;;;;;17.43;62.63;101784.66;5005323;28;20097;-57
2022/09/05 02:35:08;;;;;;;10.50;8.75;;;;;;;17.42;61.77;101779.38;5011080;28;20026;-56
2022/09/05 02:37:33;;;;;;;13.30;9.80;;;;;;;17.40;62.00;101782.00;5010316;28;20056;-57
2022/09/05 02:40:20;;;;;;;13.87;9.43;;;;;;;17.37;62.24;101787.25;5011542;28;20065;-56
2022/09/05 02:43:06;;;;;;;14.00;8.85;;;;;;;17.34;62.57;101780.19;5011183;28;20336;-56
2022/09/05 02:45:43;;;;;;;10.63;9.25;;;;;;;17.31;62.97;101784.53;5004669;28;20234;-56
2022/09/05 02:48:29;;;;;;;11.52;8.93;;;;;;;17.27;62.67;101786.25;5010081;28;20057;-56
2022/09/05 02:51:13;;;;;;;13.95;9.48;;;;;;;17.28;61.68;101784.47;5007809;28;20068;-56
2022/09/05 02:53:45;;;;;;;11.80;9.35;;;;;;;17.25;61.75;101787.09;5004429;28;20079;-56
2022/09/05 02:56:38;;;;;;;14.35;9.30;;;;;;;17.23;61.00;101794.09;5009520;28;20054;-56
2022/09/05 02:59:09;;;;;;;12.30;8.57;;;;;;;17.17;61.26;101785.25;5012535;28;20482;-56
2022/09/05 03:02:10;;;;;;;11.73;8.95;;;;;;;17.12;61.63;101784.34;5008806;28;20054;-56
2022/09/05 03:04:49;;;;;;;13.25;9.95;;;;;;;17.11;62.36;101782.56;4992332;28;20071;-56
2022/09/05 03:07:51;;;;;;;13.68;9.90;;;;;;;17.12;62.09;101780.78;5004501;28;20057;-56
2022/09/05 03:11:02;;;;;;;13.13;10.52;;;;;;;17.09;62.19;101781.66;5007988;28;20037;-56
2022/09/05 03:13:58;;;;;;;12.95;10.13;;;;;;;17.08;62.80;101790.41;5008993;28;20022;-55
2022/09/05 03:16:23;;;;;;;13.25;10.63;;;;;;;17.04;63.42;101780.72;5009679;28;20496;-56
2022/09/05 03:19:12;;;;;;;12.07;10.60;;;;;;;17.01;63.82;101778.91;5011602;28;20018;-56
2022/09/05 03:21:46;;;;;;;13.23;10.20;;;;;;;16.99;63.42;101782.44;5011774;28;20049;-57
2022/09/05 03:24:30;;;;;;;13.45;10.23;;;;;;;16.97;63.64;101785.00;5004743;28;20061;-55
2022/09/05 03:27:04;;;;;;;15.38;10.55;;;;;;;16.92;63.30;101786.72;5011765;28;20025;-56
2022/09/05 03:30:00;;;;;;;13.00;10.00;;;;;;;16.89;63.42;101780.53;5006707;28;20080;-56
2022/09/05 03:33:04;;;;;;;12.90;10.50;;;;;;;16.85;63.75;101779.56;5007029;28;20045;-56
2022/09/05 03:35:32;;;;;;;12.60;10.20;;;;;;;16.79;64.92;101780.38;5003166;28;20038;-55
2022/09/05 03:38:07;;;;;;;15.10;10.77;;;;;;;16.79;64.99;101771.63;5007815;28;20034;-56
2022/09/05 03:40:35;;;;;;;13.43;10.55;;;;;;;16.77;64.88;101778.59;5007798;28;20458;-56
2022/09/05 03:43:15;;;;;;;16.00;10.97;;;;;;;16.77;65.23;101784.75;5000101;28;20057;-56
2022/09/05 03:46:08;;;;;;;13.73;10.77;;;;;;;16.73;65.14;101784.66;5008140;28;20036;-56
2022/09/05 03:49:05;;;;;;;13.52;10.57;;;;;;;16.72;64.21;101783.78;5003829;28;20064;-56
2022/09/05 03:51:59;;;;;;;12.60;10.07;;;;;;;16.68;65.42;101775.00;5008894;28;20615;-56
2022/09/05 03:54:54;;;;;;;13.15;10.05;;;;;;;16.71;64.40;101779.38;5006828;28;20045;-56
2022/09/05 03:57:55;;;;;;;12.57;9.95;;;;;;;16.72;64.00;101777.66;5008260;28;20053;-56
2022/09/05 04:00:32;;;;;;;12.82;9.98;;;;;;;16.68;65.04;101771.47;5009689;28;20068;-56
2022/09/05 04:03:16;;;;;;;14.60;11.07;;;;;;;16.66;64.81;101774.06;5008463;28;20026;-57
2022/09/05 04:05:49;;;;;;;12.95;10.50;;;;;;;16.65;65.02;101771.41;5003357;28;20050;-55
2022/09/05 04:08:27;;;;;;;13.48;10.70;;;;;;;16.63;65.05;101783.69;5004235;28;20033;-56
2022/09/05 04:11:04;;;;;;;13.07;10.73;;;;;;;16.60;65.30;101781.88;5004375;28;20034;-56
2022/09/05 04:13:36;;;;;;;14.93;10.43;;;;;;;16.56;65.32;101785.34;5009150;28;20048;-56
2022/09/05 04:16:10;;;;;;;19.23;10.98;;;;;;;16.54;65.78;101788.81;5010171;28;20032;-56
2022/09/05 04:18:40;;;;;;;14.18;10.80;;;;;;;16.53;65.53;101785.28;5008934;28;20040;-56
2022/09/05 04:21:13;;;;;;;14.02;10.52;;;;;;;16.49;66.00;101781.72;5007602;28;20033;-57
2022/09/05 04:24:00;;;;;;;14.23;11.35;;;;;;;16.49;65.11;101784.34;5009200;28;20033;-55
2022/09/05 04:26:38;;;;;;;12.68;10.20;;;;;;;16.44;66.12;101782.53;5007498;28;20032;-56
2022/09/05 04:29:27;;;;;;;13.85;10.65;;;;;;;16.44;65.48;101778.16;5008434;28;20080;-56
2022/09/05 04:32:15;;;;;;;13.45;10.88;;;;;;;16.42;65.88;101779.84;5009973;28;20038;-56
2022/09/05 04:34:59;;;;;;;14.85;10.95;;;;;;;16.37;66.63;101778.94;5003535;28;20559;-56
2022/09/05 04:37:43;;;;;;;15.35;11.13;;;;;;;16.39;65.40;101784.22;5003852;28;20029;-56
2022/09/05 04:40:46;;;;;;;14.48;10.63;;;;;;;16.35;65.98;101791.16;5010208;28;20034;-56
2022/09/05 04:43:13;;;;;;;12.88;10.50;;;;;;;16.33;65.49;101791.13;5007614;28;20093;-56
2022/09/05 04:45:45;;;;;;;12.60;10.50;;;;;;;16.31;65.54;101792.00;5009541;28;20056;-56
2022/09/05 04:48:16;;;;;;;14.95;10.45;;;;;;;16.28;66.27;101789.28;5006503;28;20492;-56
2022/09/05 04:50:59;;;;;;;14.30;11.05;;;;;;;16.22;66.87;101791.84;5008303;28;20247;-56
2022/09/05 04:53:39;;;;;;;13.23;10.43;;;;;;;16.22;66.24;101786.56;5006741;28;20367;-56
2022/09/05 04:56:13;;;;;;;14.15;10.95;;;;;;;16.19;66.54;101787.41;5006148;28;20025;-56
2022/09/05 04:58:48;;;;;;;14.88;10.77;;;;;;;16.17;67.32;101791.78;5008873;28;20501;-56
2022/09/05 05:01:21;;;;;;;14.70;10.90;;;;;;;16.12;68.13;101794.34;5007619;28;20040;-56
2022/09/05 05:03:47;;;;;;;14.85;10.65;;;;;;;16.14;66.81;101794.34;5009439;28;20569;-56
2022/09/05 05:06:27;;;;;;;18.83;11.48;;;;;;;16.14;67.06;101803.13;5010329;28;20030;-56
2022/09/05 05:09:06;;;;;;;26.17;11.93;;;;;;;16.11;67.56;101804.84;5009327;28;20053;-56
2022/09/05 05:11:52;;;;;;;22.98;11.93;;;;;;;16.11;66.77;101804.84;5005500;28;20524;-56
2022/09/05 05:14:41;;;;;;;21.63;11.68;;;;;;;16.11;67.74;101807.47;5004979;28;20034;-56
2022/09/05 05:17:38;;;;;;;16.42;11.15;;;;;;;16.05;67.59;101813.50;5001214;28;20485;-56
2022/09/05 05:20:19;;;;;;;14.88;10.95;;;;;;;15.98;68.43;101806.38;5007646;28;20038;-55
2022/09/05 05:23:09;;;;;;;18.05;11.48;;;;;;;15.98;67.41;101807.25;5006242;28;20052;-55
2022/09/05 05:26:02;;;;;;;14.88;11.07;;;;;;;15.98;67.40;101814.25;5007997;28;20052;-56
2022/09/05 05:29:00;;;;;;;15.52;11.07;;;;;;;15.98;67.18;101815.13;5008090;28;20493;-56
2022/09/05 05:31:27;;;;;;;15.93;11.65;;;;;;;15.96;68.40;101816.84;5008841;28;20117;-56
2022/09/05 05:33:54;;;;;;;17.08;11.50;;;;;;;15.93;68.31;101813.28;5005085;28;20038;-56
2022/09/05 05:36:25;;;;;;;14.70;11.23;;;;;;;15.94;67.92;101815.06;5015105;28;20025;-57
2022/09/05 05:39:03;;;;;;;15.25;11.18;;;;;;;15.95;68.05;101820.34;5004722;28;20029;-57
2022/09/05 05:41:50;;;;;;;15.47;11.67;;;;;;;15.96;67.53;101810.69;5007507;28;20033;-56
2022/09/05 05:44:24;;;;;;;15.60;11.23;;;;;;;15.96;68.09;101813.31;5006373;28;20038;-56
2022/09/05 05:46:59;;;;;;;17.40;11.85;;;;;;;15.94;68.98;101809.81;5007190;28;20030;-57
2022/09/05 05:49:39;;;;;;;15.80;12.02;;;;;;;15.93;69.18;101811.56;5004002;28;20102;-57
2022/09/05 05:52:33;;;;;;;15.43;11.45;;;;;;;15.95;68.03;101812.44;5012650;28;20025;-56
2022/09/05 05:55:13;;;;;;;16.35;12.68;;;;;;;15.95;68.81;101816.84;5006247;28;20729;-57
2022/09/05 05:57:52;;;;;;;16.05;11.18;;;;;;;15.96;68.85;101823.84;5002032;28;20029;-56
2022/09/05 06:00:22;;;;;;;15.90;12.27;;;;;;;15.94;68.74;101825.56;5007487;28;20025;-57
2022/09/05 06:03:09;;;;;;;17.23;13.05;;;;;;;15.95;69.77;101824.72;5003253;28;20127;-55
2022/09/05 06:05:57;;;;;;;18.52;12.65;;;;;;;15.93;69.90;101815.91;5002539;28;20030;-56
2022/09/05 06:08:48;;;;;;;17.02;11.75;;;;;;;15.93;69.87;101831.69;5008180;28;20404;-56
2022/09/05 06:11:22;;;;;;;15.77;11.98;;;;;;;15.96;70.00;101836.97;5009360;28;20440;-57
2022/09/05 06:14:18;;;;;;;16.40;12.35;;;;;;;15.96;70.36;101837.88;5007224;28;20824;-55
2022/09/05 06:16:50;;;;;;;17.02;12.30;;;;;;;15.97;70.59;101838.75;5006054;28;20034;-56
2022/09/05 06:19:22;;;;;;;17.92;12.73;;;;;;;15.98;70.54;101841.41;5000547;28;20084;-57
2022/09/05 06:22:06;;;;;;;16.13;13.18;;;;;;;16.02;70.21;101839.75;5018526;28;20066;-56
2022/09/05 06:24:31;;;;;;;19.50;13.45;;;;;;;16.04;71.18;101839.75;5004686;28;20053;-57
2022/09/05 06:27:29;;;;;;;22.10;14.45;;;;;;;16.05;71.15;101846.78;5008828;28;20104;-56
2022/09/05 06:30:27;;;;;;;26.73;14.20;;;;;;;16.06;72.26;101838.94;5004313;28;20064;-56
2022/09/05 06:33:17;;;;;;;20.60;13.43;;;;;;;16.11;70.88;101839.88;5001300;28;20176;-56
2022/09/05 06:35:46;;;;;;;25.50;14.00;;;;;;;16.14;71.97;101842.56;5007828;28;20452;-55
2022/09/05 06:38:56;;;;;;;21.65;14.07;;;;;;;16.19;71.10;101839.13;5004207;28;20034;-56
2022/09/05 06:41:41;;;;;;;21.48;13.02;;;;;;;16.22;71.80;101844.44;5004492;28;20087;-55
2022/09/05 06:44:39;;;;;;;18.55;12.85;;;;;;;16.28;71.67;101844.53;5003406;28;20057;-56
2022/09/05 06:47:14;;;;;;;18.50;13.40;;;;;;;16.31;72.44;101840.22;5004241;28;20042;-54
2022/09/05 06:49:54;;;;;;;16.45;12.15;;;;;;;16.38;71.77;101840.31;5005782;28;20490;-56
2022/09/05 06:52:57;;;;;;;19.77;12.93;;;;;;;16.42;70.93;101837.72;4995257;28;20029;-56
2022/09/05 06:55:46;;;;;;;16.38;12.43;;;;;;;16.48;71.05;101837.84;5006232;28;20042;-55
2022/09/05 06:58:51;;;;;;;14.88;12.30;;;;;;;16.55;71.74;101833.53;4998514;28;20033;-55
2022/09/05 07:01:26;;;;;;;15.02;11.27;;;;;;;16.61;72.13;101832.75;5005195;28;20520;-56
2022/09/05 07:04:14;;;;;;;19.02;10.85;;;;;;;16.69;71.66;101836.38;4998097;28;20027;-56
2022/09/05 07:07:05;;;;;;;16.63;9.88;;;;;;;16.75;71.10;101836.47;5018063;28;20026;-56
2022/09/05 07:09:45;;;;;;;13.57;9.82;;;;;;;16.82;72.13;101842.72;4995623;28;20045;-57
2022/09/05 07:12:29;;;;;;;13.48;9.20;;;;;;;16.90;72.24;101848.09;5008139;28;20038;-56
2022/09/05 07:15:00;;;;;;;11.10;9.10;;;;;;;16.95;72.21;101854.34;5006149;28;20033;-56
2022/09/05 07:17:31;;;;;;;12.25;8.38;;;;;;;17.00;72.11;101848.28;4995670;28;20056;-56
2022/09/05 07:20:07;;;;;;;13.10;8.50;;;;;;;17.08;72.80;101856.25;5002282;28;20585;-57
2022/09/05 07:22:53;;;;;;;12.27;7.78;;;;;;;17.15;71.73;101855.47;5004638;28;20030;-57
2022/09/05 07:25:27;;;;;;;10.45;7.85;;;;;;;17.23;71.08;101849.41;5007833;28;20021;-55
2022/09/05 07:28:07;;;;;;;10.02;7.68;;;;;;;17.29;71.11;101849.47;5002758;28;20064;-56
2022/09/05 07:30:34;;;;;;;11.25;8.13;;;;;;;17.36;71.94;101854.84;5005059;28;20028;-56
2022/09/05 07:33:02;;;;;;;11.75;7.88;;;;;;;17.43;70.61;101844.38;5002028;28;20034;-57
2022/09/05 07:35:32;;;;;;;15.90;8.00;;;;;;;17.51;70.80;101853.25;4998781;28;20096;-57
2022/09/05 07:38:14;;;;;;;;;;;;;;;17.55;69.29;101853.31;5001929;28;20026;-56
2022/09/05 07:40:54;;;;;;;11.27;7.72;;;;;;;17.64;69.66;101864.81;5001348;28;19913;-56
2022/09/05 07:43:28;;;;;;;10.63;7.22;;;;;;;17.70;70.46;101867.53;5002962;28;20041;-56
2022/09/05 07:45:59;;;;;;;12.88;7.78;;;;;;;17.76;71.22;101872.84;5001642;28;20374;-56
2022/09/05 07:48:27;;;;;;;11.57;7.35;;;;;;;17.86;71.06;101872.06;4999444;28;20166;-56
2022/09/05 07:51:02;;;;;;;11.73;7.37;;;;;;;17.95;71.17;101867.81;5001023;28;20024;-56
2022/09/05 07:53:29;;;;;;;12.52;6.43;;;;;;;18.02;70.51;101864.34;5001614;28;20060;-55
2022/09/05 07:56:01;;;;;;;11.90;6.65;;;;;;;18.10;69.93;101869.69;5004745;28;20032;-56
2022/09/05 07:58:40;;;;;;;11.02;6.50;;;;;;;18.20;69.34;101869.75;4999728;28;20476;-56
2022/09/05 08:01:08;;;;;;;10.30;6.07;;;;;;;18.27;69.69;101869.84;5001572;28;20025;-56
2022/09/05 08:03:33;;;;;;;9.77;6.07;;;;;;;18.35;69.48;101870.75;5004039;28;20029;-56
2022/09/05 08:06:05;;;;;;;9.00;5.95;;;;;;;18.50;70.18;101867.38;5008711;28;20371;-56
2022/09/05 08:08:52;;;;;;;9.43;6.07;;;;;;;18.63;68.07;101868.34;5005919;28;20018;-57
2022/09/05 08:11:21;;;;;;;14.25;6.40;;;;;;;18.74;67.80;101864.00;5011526;28;20026;-56
2022/09/05 08:14:07;;;;;;;11.70;6.22;;;;;;;18.86;65.89;101865.84;5009982;28;20026;-56
2022/09/05 08:16:33;;;;;;;14.43;5.85;;;;;;;18.98;66.28;101859.78;5003082;28;20054;-56
2022/09/05 08:19:30;;;;;;;16.00;5.53;;;;;;;19.04;66.43;101860.66;5010955;28;20038;-56
2022/09/05 08:21:58;;;;;;;14.48;5.88;;;;;;;19.17;66.62;101863.38;5006525;28;20042;-56
2022/09/05 08:24:29;;;;;;;14.85;5.68;;;;;;;19.25;66.08;101861.66;5009988;28;20030;-56
2022/09/05 08:27:12;;;;;;;11.23;5.60;;;;;;;19.36;65.99;101866.97;5010497;28;20034;-56
2022/09/05 08:29:46;;;;;;;9.50;5.45;;;;;;;19.54;64.35;101869.69;4998008;28;20137;-58
2022/09/05 08:32:19;;;;;;;13.70;5.50;;;;;;;19.70;64.04;101870.59;5001022;28;20058;-56
2022/09/05 08:34:51;;;;;;;11.45;5.93;;;;;;;19.84;63.11;101875.94;5000079;28;20022;-57
2022/09/05 08:37:21;;;;;;;9.27;5.82;;;;;;;20.02;61.05;101863.63;5003432;28;20041;-56
2022/09/05 08:39:50;;;;;;;8.85;5.90;;;;;;;20.07;61.37;101864.50;5011154;28;20025;-56
2022/09/05 08:42:35;;;;;;;11.43;6.50;;;;;;;20.19;62.34;101875.09;5004221;28;20192;-56
2022/09/05 08:45:30;;;;;;;11.35;5.97;;;;;;;20.25;62.39;101867.16;5000858;28;20030;-56
2022/09/05 08:48:17;;;;;;;11.38;6.05;;;;;;;20.33;60.34;101868.06;5013515;28;20054;-56
2022/09/05 08:51:24;;;;;;;10.52;5.80;;;;;;;20.48;61.50;101863.63;5000792;28;20401;-55
2022/09/05 08:54:11;;;;;;;50.42;9.02;;;;;;;20.63;59.21;101857.41;5001588;28;20038;-56
2022/09/05 08:56:39;;;;;;;12.30;6.15;;;;;;;20.79;58.25;101853.00;5001386;28;20010;-55
2022/09/05 08:59:19;;;;;;;10.15;5.85;;;;;;;20.91;58.90;101852.94;4999672;28;20026;-55
2022/09/05 09:02:03;;;;;;;7.63;5.38;;;;;;;21.07;57.80;101847.59;5003158;28;20026;-55
2022/09/05 09:04:41;;;;;;;11.50;5.40;;;;;;;21.24;57.31;101845.75;5001160;28;20022;-53
2022/09/05 09:07:06;;;;;;;8.40;4.78;;;;;;;21.44;58.35;101847.44;5000383;28;20037;-58
2022/09/05 09:09:54;;;;;;;8.30;4.80;;;;;;;21.54;58.11;101844.75;5002556;28;20084;-55
2022/09/05 09:12:35;;;;;;;9.32;5.47;;;;;;;21.67;57.10;101845.53;5000192;28;20040;-55
2022/09/05 09:15:35;;;;;;;11.05;5.78;;;;;;;21.90;56.43;101839.19;5004035;28;20037;-55
2022/09/05 09:18:17;;;;;;;8.52;5.63;;;;;;;22.03;54.50;101843.50;5004962;28;20046;-55
2022/09/05 09:21:20;;;;;;;11.57;5.30;;;;;;;22.21;55.29;101841.59;4996713;28;20053;-56
2022/09/05 09:24:04;;;;;;;7.93;5.55;;;;;;;22.33;53.86;101835.31;4991191;28;20061;-56
2022/09/05 09:26:50;;;;;;;39.90;7.03;;;;;;;22.50;54.75;101833.38;5010680;28;20071;-55
2022/09/05 09:29:17;;;;;;;21.23;5.70;;;;;;;22.63;52.42;101833.25;5001976;28;20033;-56
2022/09/05 09:31:55;;;;;;;10.55;4.63;;;;;;;22.83;52.42;101830.38;5009805;28;20033;-55
2022/09/05 09:34:30;;;;;;;13.00;4.57;;;;;;;22.93;51.40;101826.72;5008064;28;20030;-55
2022/09/05 09:37:45;;;;;;;6.57;4.43;;;;;;;23.02;51.20;101825.72;5010646;28;20092;-55
2022/09/05 09:40:23;;;;;;;10.18;4.32;;;;;;;23.20;49.89;101828.19;5001133;28;20068;-56
2022/09/05 09:42:56;;;;;;;7.13;4.30;;;;;;;23.26;49.54;101825.41;5005383;28;20085;-54
2022/09/05 09:45:43;;;;;;;7.95;4.05;;;;;;;23.45;49.13;101825.16;5010429;28;20493;-55
2022/09/05 09:48:08;;;;;;;7.93;4.22;;;;;;;23.58;48.84;101820.56;5004048;28;20058;-55
2022/09/05 09:50:54;;;;;;;5.83;4.07;;;;;;;23.72;47.49;101823.88;5003148;28;20072;-55
2022/09/05 09:53:22;;;;;;;10.02;4.60;;;;;;;23.90;46.84;101814.75;5007475;28;20292;-55
2022/09/05 09:55:53;;;;;;;7.32;4.10;;;;;;;24.04;47.68;101824.28;5009367;28;21247;-56
2022/09/05 09:58:31;;;;;;;11.68;4.35;;;;;;;24.09;46.54;101814.44;5009510;28;20044;-56
2022/09/05 10:01:34;;;;;;;7.82;4.10;;;;;;;24.25;47.38;101812.38;5009086;28;20045;-55
2022/09/05 10:04:12;;;;;;;7.05;4.38;;;;;;;24.39;46.41;101813.00;5007693;28;20064;-55
2022/09/05 10:06:53;;;;;;;11.05;4.57;;;;;;;24.54;46.65;101810.97;5008588;28;20485;-55
2022/09/05 10:09:21;;;;;;;6.57;4.35;;;;;;;24.71;43.92;101808.88;5009240;28;20034;-56
2022/09/05 10:12:15;;;;;;;7.47;4.10;;;;;;;24.88;45.39;101796.97;5010287;28;20493;-56
2022/09/05 10:14:59;;;;;;;6.90;3.72;;;;;;;24.96;45.14;101800.34;5009119;28;20092;-55
2022/09/05 10:17:30;;;;;;;7.70;3.67;;;;;;;25.06;41.96;101785.91;5008242;28;20063;-54
2022/09/05 10:20:13;;;;;;;9.15;3.80;;;;;;;25.25;43.44;101790.84;5001937;28;20628;-55
2022/09/05 10:23:08;;;;;;;6.20;3.35;;;;;;;25.37;42.78;101790.56;5007609;28;20077;-54
2022/09/05 10:25:49;;;;;;;6.20;3.50;;;;;;;25.55;39.57;101789.28;5008731;28;20042;-55
2022/09/05 10:29:05;;;;;;;6.10;3.25;;;;;;;25.66;41.71;101784.56;5005380;28;20030;-55
2022/09/05 10:31:33;;;;;;;5.45;3.15;;;;;;;25.77;39.80;101781.59;5002672;28;20099;-55
2022/09/05 10:34:17;;;;;;;5.40;3.13;;;;;;;25.90;39.54;101784.84;5008366;28;20374;-55
2022/09/05 10:36:50;;;;;;;7.78;3.70;;;;;;;26.00;39.05;101780.19;4993841;28;20038;-54
2022/09/05 10:39:24;;;;;;;6.22;3.15;;;;;;;26.08;39.50;101772.84;4997037;28;20394;-55
2022/09/05 10:42:02;;;;;;;5.93;3.00;;;;;;;26.25;41.08;101776.88;5013118;28;20026;-55
2022/09/05 10:44:40;;;;;;;5.97;3.10;;;;;;;26.27;40.22;101767.00;4999753;28;20226;-55
2022/09/05 10:47:23;;;;;;;5.70;3.00;;;;;;;26.43;37.94;101776.31;5008984;28;20489;-54
2022/09/05 10:50:02;;;;;;;5.57;2.83;;;;;;;26.46;39.80;101768.25;4999799;28;20053;-54
2022/09/05 10:52:39;;;;;;;4.63;2.90;;;;;;;26.57;40.08;101769.75;4999872;28;20470;-54
2022/09/05 10:55:30;;;;;;;5.65;3.22;;;;;;;26.75;38.01;101769.25;4999821;28;20384;-54
2022/09/05 10:58:27;;;;;;;5.78;3.42;;;;;;;26.90;38.68;101768.75;5007589;28;20073;-55
2022/09/05 11:01:09;;;;;;;5.60;3.08;;;;;;;27.02;38.79;101772.84;5002329;28;20022;-55
2022/09/05 11:04:05;;;;;;;31.00;5.95;;;;;;;27.14;37.86;101765.38;5017361;28;20037;-55
2022/09/05 11:06:39;;;;;;;6.00;3.00;;;;;;;27.21;36.08;101761.59;5004571;28;20022;-55
2022/09/05 11:09:11;;;;;;;4.68;3.20;;;;;;;27.21;36.19;101757.13;5001323;28;20044;-54
2022/09/05 11:11:45;;;;;;;5.38;3.05;;;;;;;27.30;36.13;101758.63;5000905;28;20053;-54
2022/09/05 11:14:40;;;;;;;7.45;3.10;;;;;;;27.37;38.43;101753.97;5001295;28;20504;-56
2022/09/05 11:17:38;;;;;;;5.18;3.00;;;;;;;27.40;38.47;101745.84;5003245;28;20396;-56
2022/09/05 11:20:22;;;;;;;6.68;3.22;;;;;;;27.57;36.42;101739.94;5002561;28;20125;-56
2022/09/05 11:22:50;;;;;;;4.40;3.03;;;;;;;27.71;36.80;101744.84;5001771;28;20037;-56
2022/09/05 11:25:23;;;;;;;5.80;3.30;;;;;;;27.81;36.44;101748.94;5002120;28;20113;-56
2022/09/05 11:27:56;;;;;;;4.70;2.97;;;;;;;27.87;35.19;101743.38;5002681;28;20037;-57
2022/09/05 11:30:26;;;;;;;6.40;3.10;;;;;;;27.89;36.46;101741.50;5002769;28;20049;-55
2022/09/05 11:33:27;;;;;;;5.60;3.20;;;;;;;28.13;35.04;101738.03;5001177;28;20042;-55
2022/09/05 11:35:59;;;;;;;5.55;3.20;;;;;;;28.14;35.39;101731.75;5003119;28;20026;-55
2022/09/05 11:38:39;;;;;;;5.22;3.00;;;;;;;28.27;35.56;101736.63;5006396;28;20064;-55
2022/09/05 11:41:23;;;;;;;9.00;3.30;;;;;;;28.36;36.61;101743.47;5002991;28;20038;-55
2022/09/05 11:44:19;;;;;;;5.28;3.55;;;;;;;28.41;35.39;101737.91;5000432;28;20147;-55
2022/09/05 11:47:15;;;;;;;4.30;2.83;;;;;;;28.67;35.78;101736.09;4998007;28;20046;-56
2022/09/05 11:50:26;;;;;;;6.07;3.10;;;;;;;28.65;36.19;101728.13;5001910;28;20030;-56
2022/09/05 11:53:24;;;;;;;5.35;2.88;;;;;;;28.88;33.75;101735.28;4988811;28;20045;-56
2022/09/05 11:56:17;;;;;;;9.90;3.40;;;;;;;28.99;32.99;101737.50;5008594;28;20061;-56
2022/09/05 11:59:04;;;;;;;4.47;3.00;;;;;;;29.08;32.26;101736.28;5006919;28;20042;-57
2022/09/05 12:01:39;;;;;;;4.50;2.83;;;;;;;29.17;33.21;101741.28;5001388;28;20034;-55
2022/09/05 12:04:29;;;;;;;4.68;2.97;;;;;;;29.26;32.69;101729.34;5002082;28;20088;-56
2022/09/05 12:07:12;;;;;;;4.72;2.90;;;;;;;29.34;31.32;101729.88;5011812;28;20021;-56
2022/09/05 12:10:05;;;;;;;5.63;2.85;;;;;;;29.39;33.05;101729.72;5009431;28;20030;-55
2022/09/05 12:12:36;;;;;;;4.90;3.22;;;;;;;29.42;31.77;101730.44;5009668;28;21071;-55
2022/09/05 12:15:23;;;;;;;7.97;2.92;;;;;;;29.53;33.20;101724.59;5007138;28;20424;-55
2022/09/05 12:18:04;;;;;;;11.32;4.28;;;;;;;29.57;32.30;101715.47;5011303;28;20481;-56
2022/09/05 12:20:54;;;;;;;4.93;3.00;;;;;;;29.64;32.04;101716.09;4997961;28;20489;-56
2022/09/05 12:23:32;;;;;;;5.28;2.80;;;;;;;29.72;32.01;101713.06;5000381;28;20509;-54
2022/09/05 12:26:08;;;;;;;5.88;2.92;;;;;;;29.79;31.41;101711.88;5001547;28;20034;-54